createdAt,value
2022-08-03T00:03:41.028Z,20.3
2022-08-03T00:06:04.369Z,20.3
2022-08-03T00:07:53.410Z,20.3
2022-08-03T00:09:59.655Z,20.3
2022-08-03T00:14:12.132Z,20.3
2022-08-03T00:16:21.149Z,20.3
2022-08-03T00:18:27.351Z,20.3
2022-08-03T00:22:59.354Z,20.2
2022-08-03T00:25:05.648Z,20.2
2022-08-03T00:27:11.810Z,20.2
2022-08-03T00:29:20.793Z,20.2
2022-08-03T00:31:40.172Z,20.2
2022-08-03T00:33:59.306Z,20.1
2022-08-03T00:35:50.594Z,20.1
2022-08-03T00:37:45.704Z,20
2022-08-03T00:39:51.946Z,19.9
2022-08-03T00:41:58.209Z,19.9
2022-08-03T00:44:07.219Z,19.8
2022-08-03T00:48:29.745Z,19.8
2022-08-03T00:50:25.894Z,19.7
2022-08-03T00:52:32.132Z,19.7
2022-08-03T00:54:38.391Z,19.7
2022-08-03T00:57:00.213Z,19.7
2022-08-03T00:58:53.643Z,19.6
2022-08-03T01:00:59.917Z,19.5
2022-08-03T01:03:06.088Z,19.5
2022-08-03T01:09:24.829Z,19.4
2022-08-03T01:14:03.825Z,19.3
2022-08-03T01:21:03.268Z,19.2
2022-08-03T01:27:24.716Z,19.1
2022-08-03T01:29:30.952Z,19
2022-08-03T01:31:37.212Z,19
2022-08-03T01:33:43.469Z,18.9
2022-08-03T01:35:49.671Z,18.9
2022-08-03T01:37:55.909Z,18.9
2022-08-03T01:40:02.135Z,18.8
2022-08-03T01:44:29.378Z,18.7
2022-08-03T01:46:23.624Z,18.7
2022-08-03T01:48:29.865Z,18.7
2022-08-03T01:54:48.599Z,18.7
2022-08-03T01:56:57.623Z,18.6
2022-08-03T02:01:10.219Z,18.6
2022-08-03T02:03:16.314Z,18.6
2022-08-03T02:05:22.577Z,18.6
2022-08-03T02:07:28.847Z,18.6
2022-08-03T02:13:50.336Z,18.6
2022-08-03T02:15:56.624Z,18.5
2022-08-03T02:17:01.121Z,18.5
2022-08-03T02:19:07.331Z,18.6
2022-08-03T02:23:19.831Z,18.4
2022-08-03T02:25:28.832Z,18.3
2022-08-03T02:29:41.366Z,18.3
2022-08-03T02:31:47.599Z,18.3
2022-08-03T02:33:53.847Z,18.3
2022-08-03T02:36:00.133Z,18.3
2022-08-03T02:40:15.386Z,18.4
2022-08-03T02:42:21.669Z,18.3
2022-08-03T02:44:27.925Z,18.3
2022-08-03T02:46:34.116Z,18.4
2022-08-03T02:48:40.408Z,18.3
2022-08-03T02:50:46.648Z,18.3
2022-08-03T02:52:52.924Z,18.4
2022-08-03T02:57:08.190Z,18.5
2022-08-03T02:59:14.431Z,18.5
2022-08-03T03:01:20.873Z,18.5
2022-08-03T03:05:55.557Z,18.5
2022-08-03T03:07:51.376Z,18.5
2022-08-03T03:09:48.491Z,18.4
2022-08-03T03:11:54.739Z,18.3
2022-08-03T03:14:01.031Z,18.3
2022-08-03T03:15:05.517Z,18.2
2022-08-03T03:17:11.768Z,18.2
2022-08-03T03:19:18.025Z,18.3
2022-08-03T03:21:24.310Z,18.3
2022-08-03T03:23:34.110Z,18.2
2022-08-03T03:25:39.551Z,18.2
2022-08-03T03:27:49.443Z,18.3
2022-08-03T03:29:52.092Z,18.3
2022-08-03T03:31:58.344Z,18.3
2022-08-03T03:34:04.654Z,18.3
2022-08-03T03:36:10.885Z,18.2
2022-08-03T03:38:19.918Z,18.3
2022-08-03T03:40:26.138Z,18.2
2022-08-03T03:42:32.430Z,18.3
2022-08-03T03:44:38.716Z,18.3
2022-08-03T03:46:45.113Z,18.2
2022-08-03T03:48:51.224Z,18.1
2022-08-03T03:50:57.496Z,18.1
2022-08-03T03:57:19.011Z,18.1
2022-08-03T03:59:25.272Z,18
2022-08-03T04:01:31.513Z,18
2022-08-03T04:03:37.807Z,18
2022-08-03T04:05:45.955Z,18
2022-08-03T04:07:53.043Z,18.1
2022-08-03T04:09:59.353Z,18.1
2022-08-03T04:12:05.612Z,18.2
2022-08-03T04:14:31.420Z,18.3
2022-08-03T04:16:41.897Z,18.3
2022-08-03T04:18:43.947Z,18.3
2022-08-03T04:20:52.967Z,18.5
2022-08-03T04:22:59.249Z,18.6
2022-08-03T04:25:05.544Z,18.6
2022-08-03T04:27:11.747Z,18.6
2022-08-03T04:29:18.002Z,18.6
2022-08-03T04:31:24.243Z,18.7
2022-08-03T04:33:32.400Z,18.8
2022-08-03T04:36:01.811Z,18.9
2022-08-03T04:37:47.342Z,18.9
2022-08-03T04:39:53.574Z,18.9
2022-08-03T04:42:08.197Z,19
2022-08-03T04:44:06.073Z,19.1
2022-08-03T04:46:12.353Z,19.2
2022-08-03T04:48:18.617Z,19.2
2022-08-03T04:50:27.635Z,19.5
2022-08-03T04:54:40.135Z,20.3
2022-08-03T04:58:52.687Z,20.6
2022-08-03T05:00:58.928Z,21.2
2022-08-03T05:03:23.629Z,21.1
2022-08-03T05:05:14.182Z,21.6
2022-08-03T05:07:24.840Z,21.7
2022-08-03T05:09:50.796Z,21.8
2022-08-03T05:10:31.192Z,22.1
2022-08-03T05:16:49.892Z,21.7
2022-08-03T05:18:58.852Z,21.7
2022-08-03T05:25:20.543Z,21.3
2022-08-03T05:27:23.753Z,21.2
2022-08-03T05:31:36.193Z,21.3
2022-08-03T05:33:45.169Z,21.3
2022-08-03T05:37:58.422Z,21.9
2022-08-03T05:40:03.806Z,22.3
2022-08-03T05:44:16.224Z,22.1
2022-08-03T05:46:23.121Z,22
2022-08-03T05:50:42.471Z,22.2
2022-08-03T05:52:43.800Z,22.7
2022-08-03T05:54:56.962Z,23.2
2022-08-03T05:56:56.200Z,23.7
2022-08-03T05:59:16.513Z,23.7
2022-08-03T06:01:08.664Z,23.7
2022-08-03T06:03:17.574Z,23.5
2022-08-03T06:05:23.751Z,23.4
2022-08-03T06:07:29.933Z,23.8
2022-08-03T06:19:08.067Z,23.5
2022-08-03T06:21:16.178Z,22.6
2022-08-03T06:31:47.897Z,21.6
2022-08-03T06:34:35.193Z,21.8
2022-08-03T06:38:06.407Z,21.7
2022-08-03T06:40:13.989Z,22
2022-08-03T06:44:24.996Z,22.6
2022-08-03T06:46:33.951Z,22.3
2022-08-03T06:48:40.151Z,22.2
2022-08-03T06:50:46.327Z,22
2022-08-03T06:52:52.521Z,22.8
2022-08-03T06:54:58.727Z,23.2
2022-08-03T06:57:04.920Z,24
2022-08-03T07:00:07.919Z,25.8
2022-08-03T07:01:20.107Z,24.7
2022-08-03T07:03:26.223Z,24.7
2022-08-03T07:05:32.402Z,24.4
2022-08-03T07:06:36.872Z,24
2022-08-03T07:10:49.193Z,24.6
2022-08-03T07:12:56.544Z,24.5
2022-08-03T07:15:04.258Z,25.5
2022-08-03T07:17:11.674Z,25.4
2022-08-03T07:19:16.566Z,25.2
2022-08-03T07:21:22.682Z,25.4
2022-08-03T07:23:28.807Z,24.9
2022-08-03T07:25:34.959Z,25
2022-08-03T07:27:41.058Z,26.1
2022-08-03T07:29:49.846Z,25.6
2022-08-03T07:31:55.959Z,25.4
2022-08-03T07:34:02.096Z,25.9
2022-08-03T07:36:08.200Z,26.1
2022-08-03T07:38:14.290Z,25.6
2022-08-03T07:40:20.383Z,26.1
2022-08-03T07:42:26.489Z,26.6
2022-08-03T07:44:35.341Z,26.2
2022-08-03T07:46:41.399Z,26.3
2022-08-03T07:48:47.372Z,26.2
2022-08-03T07:50:53.442Z,26.5
2022-08-03T07:52:59.407Z,26.8
2022-08-03T07:55:05.360Z,26.6
2022-08-03T08:01:25.987Z,27.3
2022-08-03T08:03:49.895Z,27.7
2022-08-03T08:05:56.839Z,27.8
2022-08-03T08:10:08.635Z,28
2022-08-03T08:14:23.119Z,27.4
2022-08-03T08:18:34.873Z,27.8
2022-08-03T08:22:46.598Z,27.9
2022-08-03T08:27:00.995Z,28.5
2022-08-03T08:29:06.839Z,28.1
2022-08-03T08:31:12.617Z,28.2
2022-08-03T08:33:22.704Z,27.9
2022-08-03T08:35:24.224Z,28
2022-08-03T08:39:35.840Z,28.3
2022-08-03T08:41:45.887Z,28
2022-08-03T08:43:50.152Z,27.8
2022-08-03T08:50:09.707Z,28.5
2022-08-03T08:52:24.937Z,28.6
2022-08-03T08:54:19.032Z,28.7
2022-08-03T08:56:27.480Z,29.1
2022-08-03T08:58:33.224Z,29
2022-08-03T09:00:38.976Z,28.9
2022-08-03T09:01:43.218Z,28.5
2022-08-03T09:03:48.951Z,28.6
2022-08-03T09:05:56.098Z,28.3
2022-08-03T09:08:00.500Z,28.2
2022-08-03T09:10:12.805Z,28.5
2022-08-03T09:14:36.858Z,29.2
2022-08-03T09:16:26.134Z,29.2
2022-08-03T09:20:37.529Z,28.4
2022-08-03T09:22:43.230Z,28.5
2022-08-03T09:29:09.317Z,28.8
2022-08-03T09:31:08.715Z,29
2022-08-03T09:33:14.407Z,28.7
2022-08-03T09:35:33.144Z,28.6
2022-08-03T09:38:12.012Z,28.6
2022-08-03T09:39:41.405Z,28.7
2022-08-03T09:41:39.919Z,28.7
2022-08-03T09:43:45.550Z,29.5
2022-08-03T09:45:51.219Z,29.3
2022-08-03T09:54:20.634Z,29.3
2022-08-03T10:01:37.741Z,28.9
2022-08-03T10:04:02.811Z,28.9
2022-08-03T10:07:57.344Z,28.8
2022-08-03T10:12:08.610Z,29
2022-08-03T10:14:14.235Z,29.2
2022-08-03T10:16:22.592Z,29.1
2022-08-03T10:18:25.523Z,29.4
2022-08-03T10:28:56.368Z,29.1
2022-08-03T10:35:19.929Z,29.4
2022-08-03T10:37:23.094Z,29.9
2022-08-03T10:41:34.270Z,29.8
2022-08-03T10:45:45.487Z,29.6
2022-08-03T10:49:56.785Z,29.8
2022-08-03T10:52:13.775Z,29.7
2022-08-03T10:56:18.180Z,29.7
2022-08-03T10:57:20.451Z,29.7
2022-08-03T10:59:28.186Z,29.8
2022-08-03T11:05:45.628Z,30.5
2022-08-03T11:09:56.821Z,30.7
2022-08-03T11:12:02.437Z,30.5
2022-08-03T11:14:08.033Z,30.4
2022-08-03T11:16:19.805Z,30.4
2022-08-03T11:18:19.222Z,30.5
2022-08-03T11:20:27.561Z,31.1
2022-08-03T11:22:33.141Z,31.3
2022-08-03T11:26:44.304Z,31.6
2022-08-03T11:28:49.870Z,31.5
2022-08-03T11:30:55.456Z,31.3
2022-08-03T11:37:14.891Z,30.5
2022-08-03T11:39:20.436Z,30.6
2022-08-03T11:41:25.989Z,31.2
2022-08-03T11:43:31.874Z,31.1
2022-08-03T11:45:37.117Z,31.1
2022-08-03T11:47:50.125Z,30.9
2022-08-03T11:49:51.213Z,30.9
2022-08-03T11:51:56.531Z,31.1
2022-08-03T11:54:02.110Z,31.4
2022-08-03T11:56:26.817Z,31.6
2022-08-03T11:59:17.871Z,31.4
2022-08-03T12:00:37.926Z,31.3
2022-08-03T12:02:46.284Z,31.7
2022-08-03T12:04:51.807Z,31.7
2022-08-03T12:06:57.365Z,31.3
2022-08-03T12:09:02.912Z,31.3
2022-08-03T12:11:08.494Z,31.4
2022-08-03T12:14:26.989Z,31.5
2022-08-03T12:15:19.584Z,31.3
2022-08-03T12:17:27.914Z,31.1
2022-08-03T12:19:33.473Z,30.8
2022-08-03T12:21:39.036Z,31.1
2022-08-03T12:30:01.377Z,31.9
2022-08-03T12:32:09.683Z,31.6
2022-08-03T12:34:15.276Z,31.5
2022-08-03T12:36:20.822Z,31.5
2022-08-03T12:38:26.419Z,31.5
2022-08-03T12:40:32.154Z,31.4
2022-08-03T12:42:37.600Z,31.4
2022-08-03T12:44:43.212Z,31.4
2022-08-03T12:46:51.545Z,32
2022-08-03T12:48:57.182Z,32.1
2022-08-03T12:51:02.709Z,31.4
2022-08-03T12:54:12.484Z,31.7
2022-08-03T12:56:18.081Z,31.8
2022-08-03T12:58:23.711Z,32
2022-08-03T13:00:32.122Z,32
2022-08-03T13:02:37.721Z,31.9
2022-08-03T13:04:43.226Z,32.2
2022-08-03T13:06:48.839Z,32.1
2022-08-03T13:08:54.432Z,32.2
2022-08-03T13:15:13.960Z,31.6
2022-08-03T13:21:30.790Z,32.4
2022-08-03T13:25:55.502Z,32.4
2022-08-03T13:32:01.574Z,32.5
2022-08-03T13:34:07.189Z,32.2
2022-08-03T13:36:12.784Z,32.4
2022-08-03T13:38:18.472Z,32.7
2022-08-03T13:40:30.172Z,32.3
2022-08-03T13:46:43.586Z,32.6
2022-08-03T13:48:49.233Z,32.7
2022-08-03T13:49:56.986Z,33.1
2022-08-03T13:51:59.056Z,32.9
2022-08-03T13:54:04.673Z,32.2
2022-08-03T13:56:10.324Z,32.1
2022-08-03T13:58:18.697Z,32.4
2022-08-03T14:00:27.455Z,32.3
2022-08-03T14:02:30.014Z,32.4
2022-08-03T14:04:35.592Z,31.8
2022-08-03T14:06:41.234Z,31.9
2022-08-03T14:08:46.854Z,32.2
2022-08-03T14:17:12.171Z,33.6
2022-08-03T14:21:23.447Z,33
2022-08-03T14:23:29.090Z,32.9
2022-08-03T14:25:50.265Z,33.1
2022-08-03T14:27:43.172Z,32.8
2022-08-03T14:29:48.788Z,32.5
2022-08-03T14:32:11.160Z,31.9
2022-08-03T14:34:00.117Z,32
2022-08-03T14:36:05.742Z,32.4
2022-08-03T14:38:11.403Z,32.6
2022-08-03T14:40:17.130Z,33.1
2022-08-03T14:42:25.431Z,32.6
2022-08-03T14:44:31.092Z,32.8
2022-08-03T14:51:53.733Z,33.7
2022-08-03T14:53:58.337Z,33.7
2022-08-03T14:56:10.353Z,33.8
2022-08-03T14:58:19.333Z,34.2
2022-08-03T15:00:18.086Z,34.7
2022-08-03T15:02:24.322Z,35.3
2022-08-03T15:04:29.590Z,34.6
2022-08-03T15:12:54.878Z,35.3
2022-08-03T15:20:02.037Z,35.8
2022-08-03T15:21:47.365Z,35.6
2022-08-03T15:23:23.168Z,35.1
2022-08-03T15:26:03.787Z,35.4
2022-08-03T15:27:37.243Z,35.9
2022-08-03T15:31:48.526Z,36
2022-08-03T15:33:54.199Z,36.4
2022-08-03T15:35:59.876Z,36
2022-08-03T15:38:09.202Z,36.1
2022-08-03T15:40:13.924Z,35.9
2022-08-03T15:44:25.225Z,36
2022-08-03T15:46:49.925Z,34.8
2022-08-03T15:48:55.551Z,34.9
2022-08-03T15:53:09.638Z,35.6
2022-08-03T15:55:15.778Z,35.5
2022-08-03T16:01:32.321Z,34.4
2022-08-03T16:03:37.925Z,34.3
2022-08-03T16:05:43.598Z,34.5
2022-08-03T16:08:03.052Z,35.5
2022-08-03T16:16:14.764Z,35.1
2022-08-03T16:18:20.429Z,34.2
2022-08-03T16:20:31.234Z,35
2022-08-03T16:22:34.575Z,33
2022-08-03T16:24:40.241Z,32.8
2022-08-03T16:26:45.976Z,33.6
2022-08-03T16:28:51.659Z,34.4
2022-08-03T16:33:03.059Z,35.4
2022-08-03T16:39:23.024Z,35.2
2022-08-03T16:41:54.378Z,34.2
2022-08-03T16:42:34.320Z,32.5
2022-08-03T16:44:40.040Z,32.2
2022-08-03T16:46:45.816Z,31.6
2022-08-03T16:48:51.495Z,31.3
2022-08-03T16:50:59.915Z,30.9
2022-08-03T16:53:05.631Z,30.9
2022-08-03T16:59:22.808Z,30.9
2022-08-03T17:01:29.212Z,31.1
2022-08-03T17:03:42.472Z,31.1
2022-08-03T17:07:50.651Z,30.7
2022-08-03T17:09:56.267Z,30.7
2022-08-03T17:14:09.700Z,30.7
2022-08-03T17:16:11.713Z,30.8
2022-08-03T17:18:17.420Z,31
2022-08-03T17:20:29.822Z,30.6
2022-08-03T17:22:31.718Z,30.6
2022-08-03T17:24:41.588Z,30.6
2022-08-03T17:26:44.591Z,30.5
2022-08-03T17:28:56.313Z,30.5
2022-08-03T17:30:54.936Z,30.7
2022-08-03T17:35:09.257Z,30.5
2022-08-03T17:37:49.819Z,30.4
2022-08-03T17:39:35.906Z,30.3
2022-08-03T17:44:46.190Z,30.2
2022-08-03T17:46:42.614Z,29.9
2022-08-03T17:48:51.155Z,29.8
2022-08-03T17:50:56.974Z,29.8
2022-08-03T17:55:55.543Z,29.7
2022-08-03T17:57:22.044Z,29.7
2022-08-03T17:59:50.792Z,29.6
2022-08-03T18:01:59.275Z,29.6
2022-08-03T18:03:57.723Z,29.7
2022-08-03T18:07:46.421Z,29.6
2022-08-03T18:10:04.619Z,29.5
2022-08-03T18:11:58.190Z,29.5
2022-08-03T18:14:09.949Z,29.5
2022-08-03T18:18:29.336Z,29.6
2022-08-03T18:20:32.222Z,29.6
2022-08-03T18:22:30.628Z,29.5
2022-08-03T18:24:36.077Z,29.3
2022-08-03T18:26:41.874Z,29.3
2022-08-03T18:28:47.756Z,29.2
2022-08-03T18:30:55.099Z,29
2022-08-03T18:34:16.523Z,28.8
2022-08-03T18:35:08.076Z,28.8
2022-08-03T18:37:14.031Z,28.7
2022-08-03T18:38:19.098Z,28.7
2022-08-03T18:40:24.107Z,28.7
2022-08-03T18:42:32.201Z,28.6
2022-08-03T18:44:45.546Z,28.5
2022-08-03T18:46:44.456Z,28.3
2022-08-03T18:48:50.345Z,28.3
2022-08-03T18:50:56.320Z,28.2
2022-08-03T18:55:19.732Z,28
2022-08-03T18:57:13.986Z,27.9
2022-08-03T18:59:29.942Z,27.7
2022-08-03T19:01:58.331Z,27.6
2022-08-03T19:03:41.459Z,27.5
2022-08-03T19:05:56.212Z,27.4
2022-08-03T19:07:46.429Z,27.3
2022-08-03T19:09:52.077Z,27.3
2022-08-03T19:12:13.982Z,27.2
2022-08-03T19:14:03.950Z,27.1
2022-08-03T19:16:13.017Z,26.9
2022-08-03T19:18:18.495Z,26.9
2022-08-03T19:20:25.197Z,26.7
2022-08-03T19:22:30.371Z,26.6
2022-08-03T19:24:36.297Z,26.5
2022-08-03T19:26:42.271Z,26.4
2022-08-03T19:28:48.308Z,26.2
2022-08-03T19:30:56.956Z,26.1
2022-08-03T19:33:02.955Z,26
2022-08-03T19:35:10.106Z,26
2022-08-03T19:37:39.897Z,25.6
2022-08-03T19:39:38.709Z,25.6
2022-08-03T19:41:44.724Z,25.6
2022-08-03T19:43:58.007Z,25.6
2022-08-03T19:50:14.360Z,25.6
2022-08-03T19:54:29.322Z,25.4
2022-08-03T19:56:29.967Z,25.3
2022-08-03T20:04:56.628Z,24.8
2022-08-03T20:07:02.668Z,24.7
2022-08-03T20:09:08.777Z,24.7
2022-08-03T20:11:14.845Z,24.7
2022-08-03T20:13:23.557Z,24.7
2022-08-03T20:15:31.470Z,24.7
2022-08-03T20:19:41.873Z,24.6
2022-08-03T20:24:02.044Z,24.5
2022-08-03T20:26:00.020Z,24.5
2022-08-03T20:28:14.129Z,24.4
2022-08-03T20:30:14.868Z,24.4
2022-08-03T20:35:31.483Z,24.3
2022-08-03T20:39:48.135Z,24.2
2022-08-03T20:41:52.513Z,24.1
2022-08-03T20:43:58.659Z,24.1
2022-08-03T20:46:30.121Z,23.9
2022-08-03T20:48:10.813Z,23.9
2022-08-03T20:50:16.965Z,23.8
2022-08-03T20:52:23.306Z,23.8
2022-08-03T20:54:30.797Z,23.7
2022-08-03T20:56:38.085Z,23.7
2022-08-03T20:58:50.441Z,23.6
2022-08-03T21:05:03.504Z,23.4
2022-08-03T21:09:14.822Z,23.3
2022-08-03T21:11:23.689Z,23.3
2022-08-03T21:13:03.990Z,29.7
2022-08-03T21:13:29.816Z,23.3
2022-08-03T21:16:04.866Z,23.3
2022-08-03T21:17:42.475Z,23.2
2022-08-03T21:21:54.381Z,23
2022-08-03T21:24:00.521Z,22.9
2022-08-03T21:26:09.470Z,22.8
2022-08-03T21:28:15.604Z,22.8
2022-08-03T21:30:21.762Z,22.7
2022-08-03T21:31:26.896Z,22.7
2022-08-03T21:33:32.782Z,22.7
2022-08-03T21:35:38.563Z,22.6
2022-08-03T21:37:44.708Z,22.6
2022-08-03T21:39:53.664Z,22.5
2022-08-03T21:41:59.792Z,22.5
2022-08-03T21:44:05.986Z,22.4
2022-08-03T21:46:12.137Z,22.4
2022-08-03T21:48:18.306Z,22.4
2022-08-03T21:50:24.494Z,22.3
2022-08-03T21:52:30.691Z,22.2
2022-08-03T21:54:39.794Z,22.2
2022-08-03T21:56:45.801Z,22.2
2022-08-03T21:58:51.964Z,22.1
2022-08-03T22:03:17.156Z,22
2022-08-03T22:05:10.539Z,22
2022-08-03T22:07:16.735Z,22
2022-08-03T22:09:25.676Z,21.9
2022-08-03T22:11:31.866Z,21.8
2022-08-03T22:13:44.108Z,21.8
2022-08-03T22:15:44.268Z,21.8
2022-08-03T22:17:54.771Z,21.8
2022-08-03T22:19:56.739Z,21.7
2022-08-03T22:24:11.799Z,21.8
2022-08-03T22:26:17.982Z,21.7
2022-08-03T22:28:24.171Z,21.7
2022-08-03T22:31:59.022Z,21.7
2022-08-03T22:35:48.262Z,21.5
2022-08-03T22:37:56.209Z,21.5
2022-08-03T22:40:02.396Z,21.5
2022-08-03T22:42:08.587Z,21.5
2022-08-03T22:44:16.348Z,21.4
2022-08-03T22:46:22.507Z,21.4
2022-08-03T22:48:28.717Z,21.3
2022-08-03T22:50:34.931Z,21.3
2022-08-03T22:52:43.871Z,21.2
2022-08-03T22:56:56.392Z,21.1
2022-08-03T22:59:02.489Z,21.1
2022-08-03T23:03:14.977Z,21
2022-08-03T23:06:01.377Z,21
2022-08-03T23:07:30.273Z,20.9
2022-08-03T23:09:36.333Z,20.9
2022-08-03T23:11:45.294Z,20.8
2022-08-03T23:13:48.726Z,20.8
2022-08-03T23:15:54.936Z,20.7
2022-08-03T23:18:01.185Z,20.7
2022-08-03T23:20:07.374Z,20.7
2022-08-03T23:22:17.078Z,20.6
2022-08-03T23:24:29.589Z,20.6
2022-08-03T23:28:54.520Z,20.5
2022-08-03T23:31:00.718Z,20.5
2022-08-03T23:33:06.968Z,20.5
2022-08-03T23:35:15.933Z,20.4
2022-08-03T23:37:22.454Z,20.4
2022-08-03T23:39:28.479Z,20.4
2022-08-03T23:41:34.631Z,20.4
2022-08-03T23:47:53.258Z,20.3
2022-08-03T23:50:02.262Z,20.3
2022-08-03T23:52:08.496Z,20.2
2022-08-03T23:54:14.710Z,20.2
2022-08-03T23:56:20.922Z,20.2
2022-08-03T23:58:27.143Z,20.2
